Time;durP1;ratioP1;P1;durP2;ratioP2;P2;SDS_P1;SDS_P2;PMS_P1;PMS_P2;Temp;Humidity;BMP_temperature;BMP_pressure;BME280_temperature;BME280_humidity;BME280_pressure;Samples;Min_cycle;Max_cycle;Signal;HPM_P1;HPM_P2
2023/04/06 00:01:25;;;;;;;1.30;1.30;;;16.80;67.00;;;;;;5063843;28;20049;-73
2023/04/06 00:03:51;;;;;;;1.58;1.48;;;16.80;67.00;;;;;;5047032;28;20124;-74
2023/04/06 00:06:16;;;;;;;1.35;1.27;;;16.80;67.00;;;;;;5027216;28;20045;-73
2023/04/06 00:08:43;;;;;;;1.30;1.20;;;16.80;67.00;;;;;;5046855;28;20157;-74
2023/04/06 00:11:08;;;;;;;1.33;1.33;;;16.80;67.10;;;;;;5047981;28;20051;-74
2023/04/06 00:13:34;;;;;;;1.60;1.27;;;16.70;67.00;;;;;;5063329;28;20037;-73
2023/04/06 00:16:00;;;;;;;1.70;1.60;;;16.80;67.00;;;;;;5047127;28;20060;-73
2023/04/06 00:18:26;;;;;;;1.40;1.30;;;16.80;67.00;;;;;;5063362;28;20470;-73
2023/04/06 00:20:52;;;;;;;1.45;1.35;;;16.70;67.00;;;;;;5063881;28;20041;-74
2023/04/06 00:23:17;;;;;;;1.20;1.20;;;16.70;67.10;;;;;;5059979;28;20395;-73
2023/04/06 00:25:43;;;;;;;1.20;1.20;;;16.70;67.10;;;;;;5060296;28;20041;-73
2023/04/06 00:28:08;;;;;;;1.13;1.10;;;16.70;67.00;;;;;;5063495;28;20037;-73
2023/04/06 00:30:34;;;;;;;0.98;0.93;;;16.70;67.10;;;;;;5061466;28;20501;-73
2023/04/06 00:33:00;;;;;;;1.40;1.40;;;16.70;67.10;;;;;;5062568;28;20055;-74
2023/04/06 00:35:26;;;;;;;1.10;1.10;;;16.70;67.10;;;;;;5062598;28;20036;-73
2023/04/06 00:37:51;;;;;;;1.50;1.40;;;16.70;67.10;;;;;;5062557;28;20044;-75
2023/04/06 00:40:17;;;;;;;1.30;1.20;;;16.70;67.40;;;;;;5063433;28;20044;-73
2023/04/06 00:42:43;;;;;;;1.30;1.30;;;16.70;67.10;;;;;;5045049;28;20128;-73
2023/04/06 00:45:09;;;;;;;1.00;1.00;;;16.80;67.10;;;;;;5042515;28;20040;-73
2023/04/06 00:47:35;;;;;;;1.08;1.08;;;16.70;67.10;;;;;;5060721;28;20468;-73
2023/04/06 00:50:00;;;;;;;1.25;1.15;;;16.70;67.10;;;;;;5060891;28;20048;-73
2023/04/06 00:52:26;;;;;;;1.50;1.40;;;16.70;67.10;;;;;;5045698;28;20055;-73
2023/04/06 00:54:51;;;;;;;1.42;1.33;;;16.70;67.10;;;;;;5062756;28;20049;-73
2023/04/06 00:57:17;;;;;;;1.20;1.20;;;16.70;67.10;;;;;;5059887;28;20577;-73
2023/04/06 00:59:43;;;;;;;1.60;1.50;;;16.70;67.20;;;;;;5062328;28;20051;-73
2023/04/06 01:02:08;;;;;;;1.20;1.20;;;16.70;67.20;;;;;;5043370;28;20044;-74
2023/04/06 01:04:34;;;;;;;1.40;1.30;;;16.70;67.30;;;;;;5044093;28;20082;-73
2023/04/06 01:07:00;;;;;;;1.40;1.40;;;16.70;67.20;;;;;;5044788;28;20044;-74
2023/04/06 01:09:28;;;;;;;1.10;1.10;;;16.70;67.20;;;;;;5062114;28;20136;-73
2023/04/06 01:11:55;;;;;;;1.25;1.15;;;16.70;67.30;;;;;;5061589;28;20037;-73
2023/04/06 01:14:21;;;;;;;1.33;1.23;;;16.70;67.20;;;;;;5061077;28;20049;-73
2023/04/06 01:16:47;;;;;;;1.42;1.42;;;16.70;67.20;;;;;;5044939;28;20596;-73
2023/04/06 01:19:13;;;;;;;1.58;1.48;;;16.70;67.30;;;;;;5042415;28;20032;-73
2023/04/06 01:21:39;;;;;;;1.25;1.15;;;16.60;67.20;;;;;;5045551;28;20128;-73
2023/04/06 01:24:05;;;;;;;1.20;1.20;;;16.60;67.20;;;;;;5046575;28;20094;-73
2023/04/06 01:26:31;;;;;;;1.40;1.33;;;16.70;67.20;;;;;;5062642;28;20126;-73
2023/04/06 01:28:57;;;;;;;1.10;1.10;;;16.60;67.20;;;;;;5041958;28;20068;-74
2023/04/06 01:31:22;;;;;;;1.40;1.40;;;16.60;67.30;;;;;;5044830;28;20504;-73
2023/04/06 01:33:48;;;;;;;1.40;1.40;;;16.60;67.30;;;;;;5044333;28;20375;-73
2023/04/06 01:36:14;;;;;;;1.52;1.42;;;16.70;67.40;;;;;;5045072;28;20064;-73
2023/04/06 01:38:41;;;;;;;1.52;1.05;;;16.70;67.30;;;;;;5062412;28;20271;-73
2023/04/06 01:41:07;;;;;;;1.20;1.20;;;16.60;67.30;;;;;;5061836;28;20151;-73
2023/04/06 01:43:32;;;;;;;1.10;1.10;;;16.70;67.30;;;;;;5045912;28;20139;-74
2023/04/06 01:45:58;;;;;;;1.05;1.05;;;16.60;67.30;;;;;;5048449;28;20047;-74
2023/04/06 01:48:24;;;;;;;1.45;1.40;;;16.70;67.40;;;;;;5061623;28;20079;-74
2023/04/06 01:50:49;;;;;;;1.50;1.40;;;16.60;67.30;;;;;;5045008;28;20037;-73
2023/04/06 01:53:16;;;;;;;1.33;1.27;;;16.60;67.30;;;;;;5028379;28;20049;-73
2023/04/06 01:55:41;;;;;;;1.08;1.08;;;16.60;67.30;;;;;;5063753;28;20040;-73
2023/04/06 01:58:07;;;;;;;1.70;1.60;;;16.60;67.40;;;;;;5060350;28;20115;-73
2023/04/06 02:00:32;;;;;;;1.50;1.40;;;16.60;67.40;;;;;;5062192;28;20394;-73
2023/04/06 02:02:58;;;;;;;1.50;1.40;;;16.60;67.40;;;;;;5060739;28;20125;-74
2023/04/06 02:05:24;;;;;;;1.17;1.15;;;16.60;67.30;;;;;;5061916;28;20119;-73
2023/04/06 02:07:51;;;;;;;1.40;1.20;;;16.60;67.40;;;;;;5063160;28;20043;-73
2023/04/06 02:10:17;;;;;;;1.40;1.40;;;16.60;67.40;;;;;;5046067;28;20486;-73
2023/04/06 02:12:42;;;;;;;0.93;0.93;;;16.60;67.40;;;;;;5044034;28;20537;-73
2023/04/06 02:15:08;;;;;;;1.25;1.25;;;16.60;67.40;;;;;;5062938;28;20127;-73
2023/04/06 02:17:34;;;;;;;1.75;1.65;;;16.60;68.10;;;;;;5028550;28;20139;-73
2023/04/06 02:19:59;;;;;;;1.65;1.65;;;16.60;67.40;;;;;;5059026;28;20360;-74
2023/04/06 02:22:25;;;;;;;1.80;1.70;;;16.60;67.30;;;;;;5048263;28;20066;-73
2023/04/06 02:24:51;;;;;;;1.60;1.60;;;16.60;67.50;;;;;;5061435;28;20033;-73
2023/04/06 02:27:16;;;;;;;1.20;1.20;;;16.60;67.40;;;;;;5059361;28;20098;-73
2023/04/06 02:29:42;;;;;;;1.58;1.48;;;16.60;67.40;;;;;;5063130;28;20045;-73
2023/04/06 02:32:07;;;;;;;1.40;1.40;;;16.60;67.40;;;;;;5063090;28;20044;-73
2023/04/06 02:34:33;;;;;;;1.15;1.15;;;16.60;67.40;;;;;;5062576;28;20568;-73
2023/04/06 02:36:59;;;;;;;1.42;1.35;;;16.60;68.20;;;;;;5044875;28;20036;-74
2023/04/06 02:39:24;;;;;;;1.50;1.40;;;16.60;67.40;;;;;;5044281;28;20047;-73
2023/04/06 02:41:50;;;;;;;1.55;1.45;;;16.60;67.50;;;;;;5065114;28;20052;-73
2023/04/06 02:44:15;;;;;;;1.30;1.30;;;16.60;67.50;;;;;;5062153;28;20138;-74
2023/04/06 02:46:41;;;;;;;1.35;1.35;;;16.60;67.50;;;;;;5063158;28;20060;-74
2023/04/06 02:49:07;;;;;;;1.50;1.40;;;16.60;67.50;;;;;;5061622;28;20072;-74
2023/04/06 02:51:33;;;;;;;1.05;1.05;;;16.60;67.40;;;;;;5062082;28;20052;-74
2023/04/06 02:53:58;;;;;;;1.35;1.25;;;16.60;67.50;;;;;;5064021;28;20706;-73
2023/04/06 02:56:24;;;;;;;1.50;1.40;;;16.60;67.40;;;;;;5027218;28;20544;-74
2023/04/06 02:58:50;;;;;;;1.25;1.25;;;16.60;67.50;;;;;;5063732;28;20582;-73
2023/04/06 03:01:15;;;;;;;1.35;1.35;;;16.60;67.50;;;;;;5062806;28;20047;-74
2023/04/06 03:03:41;;;;;;;1.30;1.30;;;16.50;67.50;;;;;;5047873;28;20048;-74
2023/04/06 03:06:07;;;;;;;1.27;1.20;;;16.50;67.40;;;;;;5062002;28;20039;-74
2023/04/06 03:08:32;;;;;;;1.13;1.13;;;16.60;67.40;;;;;;5063025;28;20555;-74
2023/04/06 03:10:58;;;;;;;1.95;1.58;;;16.60;67.50;;;;;;5063186;28;20041;-73
2023/04/06 03:13:24;;;;;;;1.10;1.10;;;16.60;67.40;;;;;;5043997;28;20044;-74
2023/04/06 03:15:49;;;;;;;1.20;1.20;;;16.50;67.50;;;;;;5061969;28;20044;-73
2023/04/06 03:18:15;;;;;;;1.00;1.00;;;16.50;67.40;;;;;;5028872;28;20041;-73
2023/04/06 03:20:41;;;;;;;1.20;1.10;;;16.60;67.50;;;;;;5043451;28;20033;-73
2023/04/06 03:23:06;;;;;;;1.05;1.02;;;16.50;67.40;;;;;;5064196;28;20490;-74
2023/04/06 03:25:32;;;;;;;0.90;0.90;;;16.50;67.50;;;;;;5065891;28;20045;-74
2023/04/06 03:27:58;;;;;;;0.80;0.80;;;16.60;67.50;;;;;;5064405;28;20044;-73
2023/04/06 03:30:23;;;;;;;1.10;1.10;;;16.60;67.50;;;;;;5062279;28;20036;-74
2023/04/06 03:32:49;;;;;;;0.93;0.93;;;16.60;67.50;;;;;;5061711;28;20052;-74
2023/04/06 03:35:14;;;;;;;1.02;1.02;;;16.50;67.40;;;;;;5062545;28;20052;-74
2023/04/06 03:37:40;;;;;;;0.98;0.98;;;16.60;67.40;;;;;;5030156;28;20259;-74
2023/04/06 03:40:06;;;;;;;1.00;1.00;;;16.50;67.40;;;;;;5047066;28;20047;-74
2023/04/06 03:42:32;;;;;;;0.60;0.60;;;16.50;67.50;;;;;;5062351;28;20082;-74
2023/04/06 03:44:58;;;;;;;0.80;0.80;;;16.50;67.40;;;;;;5062294;28;20036;-74
2023/04/06 03:47:24;;;;;;;0.70;0.70;;;16.50;67.30;;;;;;5031011;28;20043;-74
2023/04/06 03:49:50;;;;;;;1.02;0.88;;;16.50;67.40;;;;;;5029589;28;20451;-74
2023/04/06 03:52:15;;;;;;;0.80;0.80;;;16.50;67.50;;;;;;5046821;28;20074;-74
2023/04/06 03:54:41;;;;;;;1.00;1.00;;;16.50;67.40;;;;;;5047845;28;20056;-74
2023/04/06 03:57:06;;;;;;;0.88;0.88;;;16.50;67.40;;;;;;5062795;28;20063;-74
2023/04/06 03:59:32;;;;;;;0.80;0.80;;;16.50;67.40;;;;;;5029326;28;20514;-74
2023/04/06 04:01:57;;;;;;;0.98;0.98;;;16.50;67.50;;;;;;5064577;28;20115;-73
2023/04/06 04:04:23;;;;;;;0.70;0.70;;;16.50;67.50;;;;;;5046629;28;20524;-74
2023/04/06 04:06:49;;;;;;;1.00;1.00;;;16.50;67.50;;;;;;5046694;28;20111;-73
2023/04/06 04:09:14;;;;;;;0.90;0.90;;;16.50;67.50;;;;;;5047414;28;20051;-74
2023/04/06 04:11:40;;;;;;;1.00;1.00;;;16.50;67.50;;;;;;5063197;28;20036;-73
2023/04/06 04:14:06;;;;;;;0.90;0.90;;;16.50;67.50;;;;;;5062583;28;20046;-74
2023/04/06 04:16:31;;;;;;;0.77;0.77;;;16.50;67.50;;;;;;5044807;28;20049;-73
2023/04/06 04:18:58;;;;;;;0.60;0.60;;;16.50;67.50;;;;;;5046521;28;20116;-73
2023/04/06 04:21:25;;;;;;;0.68;0.68;;;16.50;67.50;;;;;;5046353;28;20086;-73
2023/04/06 04:23:52;;;;;;;0.80;0.80;;;16.50;67.50;;;;;;5025662;28;20098;-73
2023/04/06 04:26:18;;;;;;;0.65;0.65;;;16.50;67.50;;;;;;5062059;28;20131;-72
2023/04/06 04:28:43;;;;;;;0.77;0.77;;;16.60;67.40;;;;;;5044913;28;20124;-72
2023/04/06 04:31:09;;;;;;;0.75;0.75;;;16.60;67.30;;;;;;5060038;28;20114;-72
2023/04/06 04:33:35;;;;;;;0.93;0.70;;;16.50;67.20;;;;;;5063528;28;20040;-72
2023/04/06 04:36:00;;;;;;;0.50;0.50;;;16.50;67.40;;;;;;5043794;28;20339;-72
2023/04/06 04:38:26;;;;;;;0.50;0.50;;;16.50;67.40;;;;;;5043078;28;20048;-72
2023/04/06 04:40:51;;;;;;;0.60;0.60;;;16.50;67.40;;;;;;5046008;28;20488;-72
2023/04/06 04:43:17;;;;;;;0.50;0.50;;;16.50;67.40;;;;;;5062451;28;20033;-72
2023/04/06 04:45:42;;;;;;;0.80;0.70;;;16.50;67.50;;;;;;5062862;28;20053;-72
2023/04/06 04:48:08;;;;;;;0.60;0.60;;;16.50;67.50;;;;;;5060015;28;20101;-73
2023/04/06 04:50:34;;;;;;;0.75;0.75;;;16.50;67.50;;;;;;5061548;28;20048;-72
2023/04/06 04:52:59;;;;;;;0.65;0.60;;;16.50;67.60;;;;;;5043196;28;20113;-72
2023/04/06 04:55:25;;;;;;;0.70;0.70;;;16.50;67.50;;;;;;5027658;28;20254;-72
2023/04/06 04:57:51;;;;;;;0.70;0.70;;;16.50;67.50;;;;;;5047036;28;20672;-72
2023/04/06 05:00:17;;;;;;;0.88;0.88;;;16.50;67.60;;;;;;5055474;28;20040;-72
2023/04/06 05:02:42;;;;;;;0.68;0.68;;;16.50;67.60;;;;;;5060126;28;20516;-72
2023/04/06 05:05:08;;;;;;;0.50;0.50;;;16.50;67.60;;;;;;5061534;28;20064;-72
2023/04/06 05:07:34;;;;;;;0.60;0.60;;;16.50;67.60;;;;;;5044041;28;20044;-72
2023/04/06 05:10:00;;;;;;;0.57;0.55;;;16.50;67.60;;;;;;5045033;28;20041;-72
2023/04/06 05:12:27;;;;;;;0.60;0.60;;;16.50;67.70;;;;;;5045118;28;20052;-71
2023/04/06 05:14:53;;;;;;;0.60;0.60;;;16.50;67.60;;;;;;5048566;28;20048;-71
2023/04/06 05:17:19;;;;;;;0.60;0.60;;;16.50;67.60;;;;;;5046248;28;20090;-72
2023/04/06 05:19:45;;;;;;;0.60;0.60;;;16.40;67.60;;;;;;5049207;28;20040;-71
2023/04/06 05:22:10;;;;;;;0.65;0.65;;;16.50;67.60;;;;;;5065784;28;20056;-72
2023/04/06 05:24:36;;;;;;;0.50;0.50;;;16.50;67.60;;;;;;5041764;28;20043;-71
2023/04/06 05:27:02;;;;;;;0.68;0.57;;;16.50;67.60;;;;;;5031888;28;20087;-71
2023/04/06 05:29:28;;;;;;;1.17;0.70;;;16.50;67.60;;;;;;5035596;28;20098;-71
2023/04/06 05:31:54;;;;;;;0.50;0.50;;;16.40;67.60;;;;;;5012304;28;20053;-71
2023/04/06 05:34:20;;;;;;;0.68;0.68;;;16.50;67.70;;;;;;5018849;28;20059;-72
2023/04/06 05:36:45;;;;;;;1.02;1.02;;;16.50;67.60;;;;;;5048722;28;20544;-72
2023/04/06 05:39:12;;;;;;;0.63;0.63;;;16.50;67.70;;;;;;5029221;28;20064;-72
2023/04/06 05:41:37;;;;;;;0.60;0.60;;;16.40;67.60;;;;;;5031396;28;20033;-72
2023/04/06 05:44:03;;;;;;;0.60;0.60;;;16.40;67.60;;;;;;5075457;28;20077;-72
2023/04/06 05:46:29;;;;;;;0.55;0.55;;;16.40;67.60;;;;;;5018679;28;20911;-72
2023/04/06 05:48:55;;;;;;;0.80;0.75;;;16.50;67.80;;;;;;5008178;28;20041;-73
2023/04/06 05:51:20;;;;;;;0.50;0.50;;;16.50;67.70;;;;;;5035914;28;20478;-74
2023/04/06 05:53:46;;;;;;;0.75;0.60;;;16.50;67.70;;;;;;5046748;28;20044;-72
2023/04/06 05:56:11;;;;;;;0.60;0.60;;;16.50;67.60;;;;;;5044692;28;20057;-74
2023/04/06 05:58:37;;;;;;;0.57;0.57;;;16.50;67.60;;;;;;5037336;28;20044;-73
2023/04/06 06:01:04;;;;;;;0.57;0.57;;;16.50;67.30;;;;;;5054006;28;20046;-72
2023/04/06 06:03:30;;;;;;;0.70;0.70;;;16.50;67.50;;;;;;5043790;28;20041;-73
2023/04/06 06:06:03;;;;;;;0.93;0.93;;;16.50;67.80;;;;;;5010024;28;20481;-74
2023/04/06 06:08:29;;;;;;;1.25;0.70;;;16.50;68.10;;;;;;5040924;28;20045;-74
2023/04/06 06:10:55;;;;;;;0.75;0.60;;;16.50;67.90;;;;;;5043079;28;20064;-73
2023/04/06 06:13:21;;;;;;;0.60;0.60;;;16.50;67.70;;;;;;5041898;28;20037;-73
2023/04/06 06:15:47;;;;;;;0.80;0.80;;;16.60;67.60;;;;;;5043738;28;20128;-74
2023/04/06 06:18:12;;;;;;;3.33;0.60;;;16.60;67.70;;;;;;5010597;28;20459;-73
2023/04/06 06:20:38;;;;;;;0.68;0.60;;;16.60;68.10;;;;;;5024276;28;20079;-72
2023/04/06 06:23:04;;;;;;;1.00;0.60;;;16.50;67.90;;;;;;5029606;28;20225;-72
2023/04/06 06:25:32;;;;;;;0.60;0.60;;;16.50;67.90;;;;;;5037506;28;20410;-72
2023/04/06 06:27:58;;;;;;;1.58;0.80;;;16.50;67.90;;;;;;5029394;28;20040;-73
2023/04/06 06:30:24;;;;;;;0.60;0.60;;;16.50;68.20;;;;;;5024565;28;20318;-73
2023/04/06 06:32:50;;;;;;;1.65;0.60;;;16.50;68.20;;;;;;5042667;28;20513;-74
2023/04/06 06:35:16;;;;;;;0.90;0.68;;;16.60;68.40;;;;;;5036913;28;20041;-74
2023/04/06 06:37:41;;;;;;;1.13;0.70;;;16.50;68.50;;;;;;5044369;28;20121;-74
2023/04/06 06:40:09;;;;;;;1.55;0.70;;;16.60;68.30;;;;;;5041990;28;20045;-74
2023/04/06 06:42:35;;;;;;;2.63;0.60;;;16.50;68.40;;;;;;5010971;28;20135;-74
2023/04/06 06:45:00;;;;;;;0.70;0.70;;;16.60;68.60;;;;;;5043592;28;20503;-74
2023/04/06 06:47:26;;;;;;;0.60;0.60;;;16.50;68.20;;;;;;5055734;28;20043;-74
2023/04/06 06:49:51;;;;;;;1.77;0.68;;;16.50;68.30;;;;;;5043948;28;20037;-74
2023/04/06 06:52:17;;;;;;;0.60;0.60;;;16.60;68.40;;;;;;5033390;28;20061;-75
2023/04/06 06:54:43;;;;;;;0.88;0.88;;;16.60;68.50;;;;;;5028516;28;20123;-74
2023/04/06 06:57:09;;;;;;;0.70;0.65;;;16.50;68.60;;;;;;5046991;28;20040;-74
2023/04/06 06:59:34;;;;;;;0.70;0.70;;;16.60;68.80;;;;;;5042033;28;20045;-74
2023/04/06 07:02:00;;;;;;;0.60;0.60;;;16.60;68.90;;;;;;5042343;28;20036;-74
2023/04/06 07:04:26;;;;;;;0.80;0.68;;;16.50;68.90;;;;;;5042394;28;20053;-75
2023/04/06 07:06:52;;;;;;;0.90;0.50;;;16.50;69.00;;;;;;5028795;28;20037;-73
2023/04/06 07:09:18;;;;;;;0.70;0.70;;;16.50;69.10;;;;;;5050099;28;20101;-74
2023/04/06 07:11:43;;;;;;;0.60;0.60;;;16.50;69.10;;;;;;5063824;28;20091;-75
2023/04/06 07:14:09;;;;;;;0.60;0.60;;;16.50;69.10;;;;;;5064536;28;20044;-75
2023/04/06 07:16:35;;;;;;;1.25;0.65;;;16.60;69.10;;;;;;5062427;28;20056;-75
2023/04/06 07:19:00;;;;;;;0.50;0.50;;;16.60;69.40;;;;;;5048756;28;20127;-78
2023/04/06 07:21:26;;;;;;;0.88;0.70;;;16.60;69.50;;;;;;5027481;28;20411;-77
2023/04/06 07:23:52;;;;;;;0.68;0.68;;;16.60;69.30;;;;;;5043171;28;20047;-75
2023/04/06 07:26:17;;;;;;;0.70;0.70;;;16.60;69.40;;;;;;5043650;28;20079;-76
2023/04/06 07:28:43;;;;;;;0.85;0.70;;;16.60;69.50;;;;;;5027137;28;20395;-75
2023/04/06 07:31:09;;;;;;;1.10;0.70;;;16.60;69.40;;;;;;5050210;28;20075;-75
2023/04/06 07:33:34;;;;;;;0.50;0.50;;;16.60;69.60;;;;;;5041809;28;20129;-75
2023/04/06 07:36:00;;;;;;;0.50;0.50;;;16.60;69.60;;;;;;5026383;28;20044;-75
2023/04/06 07:38:25;;;;;;;0.60;0.60;;;16.60;70.00;;;;;;5032604;28;20029;-75
2023/04/06 07:40:51;;;;;;;1.73;0.57;;;16.60;70.00;;;;;;5009926;28;20513;-76
2023/04/06 07:43:17;;;;;;;0.50;0.50;;;16.60;69.60;;;;;;5034702;28;20120;-76
2023/04/06 07:45:42;;;;;;;0.43;0.43;;;16.60;69.80;;;;;;5043703;28;20045;-75
2023/04/06 07:48:08;;;;;;;0.65;0.60;;;16.60;70.20;;;;;;5011948;28;20453;-75
2023/04/06 07:50:33;;;;;;;0.95;0.60;;;16.60;69.70;;;;;;5040044;28;22206;-75
2023/04/06 07:53:00;;;;;;;0.50;0.50;;;16.60;70.00;;;;;;5030679;28;20072;-75
2023/04/06 07:55:25;;;;;;;0.88;0.65;;;16.60;69.80;;;;;;5037354;28;20065;-75
2023/04/06 07:57:51;;;;;;;1.85;0.50;;;16.60;69.70;;;;;;5028010;28;20065;-75
2023/04/06 08:00:17;;;;;;;0.93;0.65;;;16.60;69.70;;;;;;5038836;28;20102;-75
2023/04/06 08:02:43;;;;;;;0.50;0.50;;;16.60;69.60;;;;;;5038828;28;20650;-75
2023/04/06 08:05:09;;;;;;;0.50;0.50;;;16.60;69.60;;;;;;5035316;28;20565;-75
2023/04/06 08:07:35;;;;;;;1.25;0.60;;;16.60;69.70;;;;;;5034666;28;20040;-75
2023/04/06 08:10:01;;;;;;;0.75;0.60;;;16.50;69.70;;;;;;5044281;28;20053;-75
2023/04/06 08:12:27;;;;;;;0.70;0.70;;;16.60;69.70;;;;;;5039817;28;20053;-75
2023/04/06 08:14:52;;;;;;;0.65;0.65;;;16.60;69.60;;;;;;5038507;28;20604;-75
2023/04/06 08:17:18;;;;;;;0.63;0.60;;;16.50;69.70;;;;;;5034813;28;20067;-75
2023/04/06 08:19:44;;;;;;;2.28;0.60;;;16.50;69.60;;;;;;5035893;28;20064;-75
2023/04/06 08:22:10;;;;;;;0.55;0.55;;;16.50;69.60;;;;;;5040310;28;20041;-75
2023/04/06 08:24:36;;;;;;;3.70;0.80;;;16.60;69.60;;;;;;5033586;28;20442;-75
2023/04/06 08:27:01;;;;;;;0.80;0.80;;;16.50;69.60;;;;;;5039597;28;20037;-75
2023/04/06 08:29:27;;;;;;;1.20;0.70;;;16.50;69.50;;;;;;5038650;28;20044;-75
2023/04/06 08:31:52;;;;;;;0.60;0.60;;;16.50;69.50;;;;;;5036971;28;20099;-75
2023/04/06 08:34:18;;;;;;;0.60;0.60;;;16.60;69.60;;;;;;5038620;28;20052;-75
2023/04/06 08:36:45;;;;;;;0.82;0.80;;;16.60;69.60;;;;;;5036030;28;20511;-75
2023/04/06 08:39:10;;;;;;;0.60;0.60;;;16.60;69.60;;;;;;5041372;28;20143;-75
2023/04/06 08:41:36;;;;;;;0.98;0.90;;;16.60;69.60;;;;;;5036478;28;20109;-75
2023/04/06 08:44:02;;;;;;;0.70;0.70;;;16.60;69.60;;;;;;5040843;28;20416;-75
2023/04/06 08:46:31;;;;;;;0.80;0.60;;;16.60;69.50;;;;;;5042400;28;20059;-75
2023/04/06 08:48:57;;;;;;;0.65;0.60;;;16.60;69.40;;;;;;5044008;28;20049;-75
2023/04/06 08:51:25;;;;;;;0.50;0.50;;;16.60;69.40;;;;;;5038502;28;20052;-75
2023/04/06 08:53:54;;;;;;;0.77;0.70;;;16.60;69.40;;;;;;5038833;28;20051;-75
2023/04/06 08:56:20;;;;;;;0.93;0.52;;;16.60;69.20;;;;;;5040881;28;20411;-75
2023/04/06 08:58:46;;;;;;;0.50;0.50;;;16.60;69.10;;;;;;5012176;28;20045;-75
2023/04/06 09:01:12;;;;;;;0.70;0.70;;;16.60;69.20;;;;;;5043250;28;20174;-75
2023/04/06 09:03:39;;;;;;;1.85;0.60;;;16.60;69.00;;;;;;5024308;28;20552;-75
2023/04/06 09:06:05;;;;;;;0.50;0.50;;;16.60;68.80;;;;;;5038836;28;20072;-75
2023/04/06 09:08:32;;;;;;;0.52;0.52;;;16.60;69.00;;;;;;5038604;28;20564;-75
2023/04/06 09:10:57;;;;;;;0.50;0.50;;;16.60;69.00;;;;;;5041224;28;20075;-75
2023/04/06 09:13:23;;;;;;;0.60;0.60;;;16.60;69.00;;;;;;5039542;28;20044;-76
2023/04/06 09:15:59;;;;;;;0.50;0.50;;;16.60;69.00;;;;;;5041476;28;20494;-75
2023/04/06 09:18:31;;;;;;;0.75;0.50;;;16.60;69.10;;;;;;5039461;28;20057;-75
2023/04/06 09:21:04;;;;;;;1.05;0.70;;;16.60;69.30;;;;;;5045343;28;20065;-74
2023/04/06 09:23:30;;;;;;;1.73;0.47;;;16.70;70.00;;;;;;5030101;28;20087;-73
2023/04/06 09:26:12;;;;;;;0.40;0.40;;;16.70;69.30;;;;;;5056099;28;20049;-74
2023/04/06 09:28:48;;;;;;;0.50;0.50;;;16.60;69.20;;;;;;5043061;28;20562;-74
2023/04/06 09:31:15;;;;;;;0.50;0.43;;;16.60;69.40;;;;;;5049698;28;20037;-74
2023/04/06 09:33:41;;;;;;;2.60;0.68;;;16.60;69.60;;;;;;5047167;28;20535;-74
2023/04/06 09:36:10;;;;;;;0.50;0.50;;;16.60;69.60;;;;;;5028972;28;20048;-75
2023/04/06 09:38:51;;;;;;;0.65;0.65;;;16.60;69.50;;;;;;5034145;28;20032;-74
2023/04/06 09:41:26;;;;;;;1.55;0.63;;;16.60;69.60;;;;;;5051944;28;20064;-74
2023/04/06 09:44:01;;;;;;;0.60;0.60;;;16.60;69.50;;;;;;5046579;28;20116;-73
2023/04/06 09:46:26;;;;;;;0.50;0.50;;;16.60;69.30;;;;;;5035799;28;20041;-73
2023/04/06 09:48:52;;;;;;;0.52;0.50;;;16.60;69.60;;;;;;5034070;28;20048;-74
2023/04/06 09:51:18;;;;;;;0.55;0.52;;;16.60;69.60;;;;;;5047394;28;20153;-74
2023/04/06 09:53:43;;;;;;;1.48;0.60;;;16.60;69.60;;;;;;5046538;28;20045;-74
2023/04/06 09:56:12;;;;;;;0.60;0.60;;;16.60;69.30;;;;;;5043536;28;20041;-75
2023/04/06 09:58:37;;;;;;;1.02;0.43;;;16.60;69.40;;;;;;5029342;28;20044;-73
2023/04/06 10:01:07;;;;;;;0.50;0.43;;;16.60;69.30;;;;;;5030589;28;20037;-75
2023/04/06 10:03:51;;;;;;;0.70;0.50;;;16.60;69.20;;;;;;5044787;28;20446;-77
2023/04/06 10:06:17;;;;;;;0.98;0.52;;;16.60;69.50;;;;;;5033349;28;20124;-76
2023/04/06 10:08:43;;;;;;;1.83;0.68;;;16.70;69.40;;;;;;5042573;28;20049;-77
2023/04/06 10:11:11;;;;;;;0.75;0.57;;;16.70;69.10;;;;;;5011610;28;20041;-76
2023/04/06 10:13:37;;;;;;;0.52;0.52;;;16.70;69.40;;;;;;5038232;28;20116;-78
2023/04/06 10:16:03;;;;;;;1.90;0.80;;;16.70;69.50;;;;;;5027053;28;20043;-74
2023/04/06 10:18:29;;;;;;;1.10;0.90;;;16.70;69.30;;;;;;5035976;28;20037;-74
2023/04/06 10:21:23;;;;;;;2.08;1.00;;;16.70;70.70;;;;;;5015008;28;20490;-75
2023/04/06 10:23:51;;;;;;;2.17;1.05;;;16.70;70.60;;;;;;5033362;28;20070;-75
2023/04/06 10:26:20;;;;;;;1.52;0.80;;;16.80;70.80;;;;;;5013895;28;20037;-77
2023/04/06 10:28:46;;;;;;;1.40;1.02;;;16.90;70.40;;;;;;5028762;28;20124;-77
2023/04/06 10:31:12;;;;;;;1.02;0.85;;;16.90;70.60;;;;;;5050571;28;20054;-75
2023/04/06 10:33:37;;;;;;;0.90;0.90;;;16.90;70.90;;;;;;5039858;28;20468;-75
2023/04/06 10:36:32;;;;;;;1.38;0.95;;;16.90;70.70;;;;;;5044567;28;20048;-75
2023/04/06 10:39:03;;;;;;;0.80;0.80;;;16.90;70.20;;;;;;5020793;28;20069;-75
2023/04/06 10:41:35;;;;;;;5.43;1.40;;;16.90;70.50;;;;;;5025155;28;20061;-75
2023/04/06 10:44:01;;;;;;;1.08;1.00;;;16.90;70.40;;;;;;5040069;28;20146;-76
2023/04/06 10:46:28;;;;;;;5.43;0.95;;;16.90;70.40;;;;;;5006640;28;20052;-76
2023/04/06 10:48:54;;;;;;;1.60;0.70;;;16.90;70.30;;;;;;5045776;28;20048;-76
2023/04/06 10:51:23;;;;;;;1.08;0.82;;;16.90;70.20;;;;;;5008690;28;20049;-76
2023/04/06 10:53:49;;;;;;;0.70;0.70;;;16.90;70.00;;;;;;5040976;28;20033;-76
2023/04/06 10:56:16;;;;;;;1.00;0.90;;;16.90;69.90;;;;;;5045136;28;20047;-76
2023/04/06 10:58:46;;;;;;;0.88;0.80;;;17.00;69.90;;;;;;5030527;28;20476;-76
2023/04/06 11:01:12;;;;;;;3.10;0.95;;;17.00;69.90;;;;;;5062023;28;20529;-76
2023/04/06 11:03:47;;;;;;;1.33;0.90;;;16.90;69.80;;;;;;5033603;28;20049;-76
2023/04/06 11:06:21;;;;;;;1.17;0.70;;;17.00;69.80;;;;;;5057018;28;20040;-77
2023/04/06 11:08:47;;;;;;;1.08;1.00;;;17.00;69.70;;;;;;5032236;28;20037;-76
2023/04/06 11:11:17;;;;;;;0.80;0.80;;;17.00;70.50;;;;;;5041498;28;20107;-75
2023/04/06 11:13:46;;;;;;;0.90;0.60;;;17.00;69.70;;;;;;5024387;28;20049;-75
2023/04/06 11:16:13;;;;;;;0.80;0.80;;;17.00;69.40;;;;;;5038753;28;20065;-75
2023/04/06 11:18:58;;;;;;;0.60;0.60;;;17.00;69.40;;;;;;4812950;28;10001151;-76
2023/04/06 11:21:39;;;;;;;0.73;0.60;;;17.10;69.60;;;;;;5043083;28;20272;-76
2023/04/06 11:24:15;;;;;;;1.08;0.68;;;17.00;69.40;;;;;;5043623;28;20068;-76
2023/04/06 11:26:53;;;;;;;1.23;0.98;;;17.00;70.30;;;;;;5043409;28;20056;-78
2023/04/06 11:29:20;;;;;;;1.00;0.80;;;17.10;70.30;;;;;;5052844;28;20430;-74
2023/04/06 11:31:50;;;;;;;1.67;0.60;;;17.10;70.10;;;;;;5040842;28;20053;-75
2023/04/06 11:34:20;;;;;;;0.77;0.65;;;17.10;70.70;;;;;;5041244;28;20094;-76
2023/04/06 11:36:47;;;;;;;1.40;0.70;;;17.10;70.80;;;;;;5044311;28;20528;-75
2023/04/06 11:39:20;;;;;;;1.38;0.70;;;17.10;71.00;;;;;;5052369;28;20120;-79
2023/04/06 11:42:04;;;;;;;2.35;0.80;;;17.20;70.90;;;;;;5044093;28;20061;-77
2023/04/06 11:44:33;;;;;;;3.40;0.90;;;17.20;70.80;;;;;;5042425;28;20037;-77
2023/04/06 11:47:00;;;;;;;3.00;1.02;;;17.20;70.90;;;;;;5073879;28;20761;-77
2023/04/06 11:49:29;;;;;;;1.25;0.88;;;17.30;70.60;;;;;;5055817;28;20041;-78
2023/04/06 11:51:55;;;;;;;3.10;0.93;;;17.30;70.60;;;;;;5039082;28;20606;-78
2023/04/06 11:54:34;;;;;;;0.75;0.75;;;17.30;70.50;;;;;;5031519;28;20051;-78
2023/04/06 11:57:01;;;;;;;1.75;0.75;;;17.30;70.90;;;;;;5027427;28;20238;-78
2023/04/06 11:59:27;;;;;;;1.83;0.85;;;17.20;70.30;;;;;;5029663;28;20052;-78
2023/04/06 12:01:53;;;;;;;0.85;0.75;;;17.20;70.20;;;;;;5041478;28;20072;-78
2023/04/06 12:04:19;;;;;;;2.80;0.80;;;17.10;70.20;;;;;;5029457;28;20541;-78
2023/04/06 12:06:45;;;;;;;0.90;0.70;;;17.10;70.10;;;;;;5027558;28;20489;-78
2023/04/06 12:09:10;;;;;;;0.60;0.60;;;17.10;70.10;;;;;;5028375;28;20069;-77
2023/04/06 12:11:36;;;;;;;1.10;0.60;;;17.10;70.00;;;;;;5027678;28;20064;-78
2023/04/06 12:14:04;;;;;;;0.80;0.80;;;17.10;70.00;;;;;;5046254;28;20053;-78
2023/04/06 12:16:30;;;;;;;0.75;0.70;;;17.20;69.90;;;;;;5031199;28;20041;-78
2023/04/06 12:18:56;;;;;;;1.63;0.60;;;17.20;69.80;;;;;;5040927;28;20043;-78
2023/04/06 12:21:21;;;;;;;1.60;0.77;;;17.20;69.80;;;;;;5041870;28;20041;-78
2023/04/06 12:23:47;;;;;;;0.75;0.65;;;17.20;69.80;;;;;;5040420;28;20045;-78
2023/04/06 12:26:12;;;;;;;0.75;0.73;;;17.20;69.60;;;;;;5027700;28;20486;-78
2023/04/06 12:28:38;;;;;;;1.55;0.77;;;17.20;69.60;;;;;;5025310;28;20104;-78
2023/04/06 12:31:04;;;;;;;1.00;0.60;;;17.20;69.60;;;;;;5010860;28;20037;-78
2023/04/06 12:33:30;;;;;;;0.63;0.60;;;17.10;69.60;;;;;;5019940;28;20471;-78
2023/04/06 12:35:56;;;;;;;0.60;0.55;;;17.20;69.50;;;;;;5026903;28;20478;-78
2023/04/06 12:38:21;;;;;;;2.30;0.75;;;17.20;69.30;;;;;;5014926;28;20041;-78
2023/04/06 12:40:47;;;;;;;0.50;0.50;;;17.20;69.10;;;;;;5052843;28;20552;-78
2023/04/06 12:43:13;;;;;;;1.17;0.50;;;17.20;69.00;;;;;;5042732;28;20033;-78